sensor_id;sensor_type;location;lat;lon;timestamp;temperature;humidity
75442;DHT22;64019;48.312;14.226;2024-01-10T00:01:35;-2.10;99.90
75442;DHT22;64019;48.312;14.226;2024-01-10T00:04:01;-2.10;99.90
75442;DHT22;64019;48.312;14.226;2024-01-10T00:06:28;-2.20;99.90
75442;DHT22;64019;48.312;14.226;2024-01-10T00:08:53;-2.20;99.90
75442;DHT22;64019;48.312;14.226;2024-01-10T00:11:19;-2.20;99.90
75442;DHT22;64019;48.312;14.226;2024-01-10T00:13:45;-2.20;99.90
75442;DHT22;64019;48.312;14.226;2024-01-10T00:16:14;-2.20;99.90
75442;DHT22;64019;48.312;14.226;2024-01-10T00:18:40;-2.20;99.90
75442;DHT22;64019;48.312;14.226;2024-01-10T00:21:07;-2.20;99.90
75442;DHT22;64019;48.312;14.226;2024-01-10T00:23:32;-2.20;99.90
75442;DHT22;64019;48.312;14.226;2024-01-10T00:25:58;-2.20;99.90
75442;DHT22;64019;48.312;14.226;2024-01-10T00:28:24;-2.30;99.90
75442;DHT22;64019;48.312;14.226;2024-01-10T00:30:50;-2.20;99.90
75442;DHT22;64019;48.312;14.226;2024-01-10T00:33:16;-2.20;99.90
75442;DHT22;64019;48.312;14.226;2024-01-10T00:35:42;-2.20;99.90
75442;DHT22;64019;48.312;14.226;2024-01-10T00:38:08;-2.20;99.90
75442;DHT22;64019;48.312;14.226;2024-01-10T00:40:33;-2.20;99.90
75442;DHT22;64019;48.312;14.226;2024-01-10T00:42:59;-2.10;99.90
75442;DHT22;64019;48.312;14.226;2024-01-10T00:45:25;-2.20;99.90
75442;DHT22;64019;48.312;14.226;2024-01-10T00:47:50;-2.20;99.90
75442;DHT22;64019;48.312;14.226;2024-01-10T00:50:16;-2.20;99.90
75442;DHT22;64019;48.312;14.226;2024-01-10T00:52:44;-2.20;99.90
75442;DHT22;64019;48.312;14.226;2024-01-10T00:55:10;-2.20;99.90
75442;DHT22;64019;48.312;14.226;2024-01-10T00:57:36;-2.20;99.90
75442;DHT22;64019;48.312;14.226;2024-01-10T01:00:07;-2.20;99.90
75442;DHT22;64019;48.312;14.226;2024-01-10T01:02:34;-2.20;99.90
75442;DHT22;64019;48.312;14.226;2024-01-10T01:05:01;-2.10;99.90
75442;DHT22;64019;48.312;14.226;2024-01-10T01:07:27;-2.10;99.90
75442;DHT22;64019;48.312;14.226;2024-01-10T01:09:53;-2.10;99.90
75442;DHT22;64019;48.312;14.226;2024-01-10T01:12:18;-2.10;99.90
75442;DHT22;64019;48.312;14.226;2024-01-10T01:14:44;-2.10;99.90
75442;DHT22;64019;48.312;14.226;2024-01-10T01:17:10;-2.10;99.90
75442;DHT22;64019;48.312;14.226;2024-01-10T01:19:36;-2.10;99.90
75442;DHT22;64019;48.312;14.226;2024-01-10T01:22:02;-2.10;99.90
75442;DHT22;64019;48.312;14.226;2024-01-10T01:24:27;-2.20;99.90
75442;DHT22;64019;48.312;14.226;2024-01-10T01:26:53;-2.20;99.90
75442;DHT22;64019;48.312;14.226;2024-01-10T01:29:20;-2.20;99.90
75442;DHT22;64019;48.312;14.226;2024-01-10T01:31:45;-2.20;99.90
75442;DHT22;64019;48.312;14.226;2024-01-10T01:34:11;-2.20;99.90
75442;DHT22;64019;48.312;14.226;2024-01-10T01:36:37;-2.30;99.90
75442;DHT22;64019;48.312;14.226;2024-01-10T01:39:03;-2.30;99.90
75442;DHT22;64019;48.312;14.226;2024-01-10T01:41:29;-2.30;99.90
75442;DHT22;64019;48.312;14.226;2024-01-10T01:43:54;-2.30;99.90
75442;DHT22;64019;48.312;14.226;2024-01-10T01:46:21;-2.30;99.90
75442;DHT22;64019;48.312;14.226;2024-01-10T01:48:47;-2.40;99.90
75442;DHT22;64019;48.312;14.226;2024-01-10T01:51:14;-2.30;99.90
75442;DHT22;64019;48.312;14.226;2024-01-10T01:53:42;-2.30;99.90
75442;DHT22;64019;48.312;14.226;2024-01-10T01:56:10;-2.30;99.90
75442;DHT22;64019;48.312;14.226;2024-01-10T01:58:36;-2.30;99.90
75442;DHT22;64019;48.312;14.226;2024-01-10T02:01:03;-2.40;99.90
75442;DHT22;64019;48.312;14.226;2024-01-10T02:03:33;-2.40;99.90
75442;DHT22;64019;48.312;14.226;2024-01-10T02:06:00;-2.30;99.90
75442;DHT22;64019;48.312;14.226;2024-01-10T02:08:29;-2.30;99.90
75442;DHT22;64019;48.312;14.226;2024-01-10T02:10:55;-2.30;99.90
75442;DHT22;64019;48.312;14.226;2024-01-10T02:13:21;-2.30;99.90
75442;DHT22;64019;48.312;14.226;2024-01-10T02:15:47;-2.30;99.90
75442;DHT22;64019;48.312;14.226;2024-01-10T02:18:13;-2.30;99.90
75442;DHT22;64019;48.312;14.226;2024-01-10T02:20:40;-2.40;99.90
75442;DHT22;64019;48.312;14.226;2024-01-10T02:23:07;-2.30;99.90
75442;DHT22;64019;48.312;14.226;2024-01-10T02:25:34;-2.40;99.90
75442;DHT22;64019;48.312;14.226;2024-01-10T02:28:00;-2.40;99.90
75442;DHT22;64019;48.312;14.226;2024-01-10T02:30:26;-2.40;99.90
75442;DHT22;64019;48.312;14.226;2024-01-10T02:32:51;-2.40;99.90
75442;DHT22;64019;48.312;14.226;2024-01-10T02:35:17;-2.40;99.90
75442;DHT22;64019;48.312;14.226;2024-01-10T02:37:43;-2.40;99.90
75442;DHT22;64019;48.312;14.226;2024-01-10T02:40:09;-2.40;99.90
75442;DHT22;64019;48.312;14.226;2024-01-10T02:42:35;-2.40;99.90
75442;DHT22;64019;48.312;14.226;2024-01-10T02:45:01;-2.40;99.90
75442;DHT22;64019;48.312;14.226;2024-01-10T02:47:26;-2.40;99.90
75442;DHT22;64019;48.312;14.226;2024-01-10T02:49:54;-2.50;99.90
75442;DHT22;64019;48.312;14.226;2024-01-10T02:52:20;-2.40;99.90
75442;DHT22;64019;48.312;14.226;2024-01-10T02:54:46;-2.40;99.90
75442;DHT22;64019;48.312;14.226;2024-01-10T02:57:12;-2.50;99.90
75442;DHT22;64019;48.312;14.226;2024-01-10T02:59:38;-2.50;99.90
75442;DHT22;64019;48.312;14.226;2024-01-10T03:02:03;-2.50;99.90
75442;DHT22;64019;48.312;14.226;2024-01-10T03:04:29;-2.50;99.90
75442;DHT22;64019;48.312;14.226;2024-01-10T03:06:55;-2.50;99.90
75442;DHT22;64019;48.312;14.226;2024-01-10T03:09:22;-2.60;99.90
75442;DHT22;64019;48.312;14.226;2024-01-10T03:11:47;-2.60;99.90
75442;DHT22;64019;48.312;14.226;2024-01-10T03:14:13;-2.70;99.90
75442;DHT22;64019;48.312;14.226;2024-01-10T03:16:38;-2.80;99.90
75442;DHT22;64019;48.312;14.226;2024-01-10T03:19:04;-2.80;99.90
75442;DHT22;64019;48.312;14.226;2024-01-10T03:21:30;-2.80;99.90
75442;DHT22;64019;48.312;14.226;2024-01-10T03:23:57;-2.80;99.90
75442;DHT22;64019;48.312;14.226;2024-01-10T03:26:23;-2.90;99.90
75442;DHT22;64019;48.312;14.226;2024-01-10T03:28:49;-2.90;99.90
75442;DHT22;64019;48.312;14.226;2024-01-10T03:31:15;-2.80;99.90
75442;DHT22;64019;48.312;14.226;2024-01-10T03:33:41;-2.90;99.90
75442;DHT22;64019;48.312;14.226;2024-01-10T03:36:10;-2.90;99.90
75442;DHT22;64019;48.312;14.226;2024-01-10T03:38:36;-3.00;99.90
75442;DHT22;64019;48.312;14.226;2024-01-10T03:41:02;-3.00;99.90
75442;DHT22;64019;48.312;14.226;2024-01-10T03:43:27;-3.00;99.90
75442;DHT22;64019;48.312;14.226;2024-01-10T03:45:53;-3.00;99.90
75442;DHT22;64019;48.312;14.226;2024-01-10T03:48:19;-3.00;99.90
75442;DHT22;64019;48.312;14.226;2024-01-10T03:50:44;-3.00;99.90
75442;DHT22;64019;48.312;14.226;2024-01-10T03:53:10;-3.00;99.90
75442;DHT22;64019;48.312;14.226;2024-01-10T03:55:36;-3.00;99.90
75442;DHT22;64019;48.312;14.226;2024-01-10T03:58:01;-3.00;99.90
75442;DHT22;64019;48.312;14.226;2024-01-10T04:00:27;-3.00;99.90
75442;DHT22;64019;48.312;14.226;2024-01-10T04:02:53;-3.00;99.90
75442;DHT22;64019;48.312;14.226;2024-01-10T04:05:19;-3.00;99.90
75442;DHT22;64019;48.312;14.226;2024-01-10T04:07:46;-3.00;99.90
75442;DHT22;64019;48.312;14.226;2024-01-10T04:10:13;-2.90;99.90
75442;DHT22;64019;48.312;14.226;2024-01-10T04:12:44;-2.90;99.90
75442;DHT22;64019;48.312;14.226;2024-01-10T04:15:10;-2.90;99.90
75442;DHT22;64019;48.312;14.226;2024-01-10T04:17:36;-2.90;99.90
75442;DHT22;64019;48.312;14.226;2024-01-10T04:20:02;-2.90;99.90
75442;DHT22;64019;48.312;14.226;2024-01-10T04:22:28;-2.90;99.90
75442;DHT22;64019;48.312;14.226;2024-01-10T04:24:57;-3.00;99.90
75442;DHT22;64019;48.312;14.226;2024-01-10T04:27:22;-2.90;99.90
75442;DHT22;64019;48.312;14.226;2024-01-10T04:29:48;-3.00;99.90
75442;DHT22;64019;48.312;14.226;2024-01-10T04:32:14;-2.90;99.90
75442;DHT22;64019;48.312;14.226;2024-01-10T04:34:40;-3.00;99.90
75442;DHT22;64019;48.312;14.226;2024-01-10T04:37:05;-2.90;99.90
75442;DHT22;64019;48.312;14.226;2024-01-10T04:39:33;-2.90;99.90
75442;DHT22;64019;48.312;14.226;2024-01-10T04:41:59;-2.90;99.90
75442;DHT22;64019;48.312;14.226;2024-01-10T04:44:25;-2.90;99.90
75442;DHT22;64019;48.312;14.226;2024-01-10T04:46:51;-2.90;99.90
75442;DHT22;64019;48.312;14.226;2024-01-10T04:49:16;-2.90;99.90
75442;DHT22;64019;48.312;14.226;2024-01-10T04:51:42;-2.90;99.90
75442;DHT22;64019;48.312;14.226;2024-01-10T04:54:08;-2.90;99.90
75442;DHT22;64019;48.312;14.226;2024-01-10T04:56:35;-3.00;99.90
75442;DHT22;64019;48.312;14.226;2024-01-10T04:59:04;-2.90;99.90
75442;DHT22;64019;48.312;14.226;2024-01-10T05:01:30;-3.00;99.90
75442;DHT22;64019;48.312;14.226;2024-01-10T05:03:56;-3.00;99.90
75442;DHT22;64019;48.312;14.226;2024-01-10T05:06:22;-3.00;99.90
75442;DHT22;64019;48.312;14.226;2024-01-10T05:08:48;-3.10;99.90
75442;DHT22;64019;48.312;14.226;2024-01-10T05:11:15;-3.10;99.90
75442;DHT22;64019;48.312;14.226;2024-01-10T05:13:40;-3.10;99.90
75442;DHT22;64019;48.312;14.226;2024-01-10T05:16:06;-3.10;99.90
75442;DHT22;64019;48.312;14.226;2024-01-10T05:18:32;-3.10;99.90
75442;DHT22;64019;48.312;14.226;2024-01-10T05:20:58;-3.10;99.90
75442;DHT22;64019;48.312;14.226;2024-01-10T05:23:24;-3.20;99.90
75442;DHT22;64019;48.312;14.226;2024-01-10T05:25:50;-3.20;99.90
75442;DHT22;64019;48.312;14.226;2024-01-10T05:28:16;-3.30;99.90
75442;DHT22;64019;48.312;14.226;2024-01-10T05:30:41;-3.40;99.90
75442;DHT22;64019;48.312;14.226;2024-01-10T05:33:10;-3.40;99.90
75442;DHT22;64019;48.312;14.226;2024-01-10T05:35:39;-3.40;99.90
75442;DHT22;64019;48.312;14.226;2024-01-10T05:38:05;-3.30;99.90
75442;DHT22;64019;48.312;14.226;2024-01-10T05:40:32;-3.40;99.90
75442;DHT22;64019;48.312;14.226;2024-01-10T05:42:58;-3.30;99.90
75442;DHT22;64019;48.312;14.226;2024-01-10T05:45:27;-3.30;99.90
75442;DHT22;64019;48.312;14.226;2024-01-10T05:47:53;-3.30;99.90
75442;DHT22;64019;48.312;14.226;2024-01-10T05:50:20;-3.30;99.90
75442;DHT22;64019;48.312;14.226;2024-01-10T05:52:46;-3.30;99.90
75442;DHT22;64019;48.312;14.226;2024-01-10T05:55:12;-3.30;99.90
75442;DHT22;64019;48.312;14.226;2024-01-10T05:57:38;-3.40;99.90
75442;DHT22;64019;48.312;14.226;2024-01-10T06:00:04;-3.40;99.90
75442;DHT22;64019;48.312;14.226;2024-01-10T06:02:36;-3.50;99.90
75442;DHT22;64019;48.312;14.226;2024-01-10T06:05:07;-3.50;99.90
75442;DHT22;64019;48.312;14.226;2024-01-10T06:07:37;-3.50;99.90
75442;DHT22;64019;48.312;14.226;2024-01-10T06:10:04;-3.50;99.90
75442;DHT22;64019;48.312;14.226;2024-01-10T06:12:30;-3.50;99.90
75442;DHT22;64019;48.312;14.226;2024-01-10T06:14:55;-3.50;99.90
75442;DHT22;64019;48.312;14.226;2024-01-10T06:17:21;-3.50;99.90
75442;DHT22;64019;48.312;14.226;2024-01-10T06:19:47;-3.60;99.90
75442;DHT22;64019;48.312;14.226;2024-01-10T06:22:13;-3.60;99.90
75442;DHT22;64019;48.312;14.226;2024-01-10T06:24:39;-3.60;99.90
75442;DHT22;64019;48.312;14.226;2024-01-10T06:27:06;-3.60;99.90
75442;DHT22;64019;48.312;14.226;2024-01-10T06:29:32;-3.60;99.90
75442;DHT22;64019;48.312;14.226;2024-01-10T06:31:59;-3.60;99.90
75442;DHT22;64019;48.312;14.226;2024-01-10T06:34:27;-3.60;99.90
75442;DHT22;64019;48.312;14.226;2024-01-10T06:36:53;-3.60;99.90
75442;DHT22;64019;48.312;14.226;2024-01-10T06:39:18;-3.70;99.90
75442;DHT22;64019;48.312;14.226;2024-01-10T06:41:48;-3.70;99.90
75442;DHT22;64019;48.312;14.226;2024-01-10T06:44:14;-3.70;99.90
75442;DHT22;64019;48.312;14.226;2024-01-10T06:46:40;-3.70;99.90
75442;DHT22;64019;48.312;14.226;2024-01-10T06:49:05;-3.80;99.90
75442;DHT22;64019;48.312;14.226;2024-01-10T06:51:32;-3.80;99.90
75442;DHT22;64019;48.312;14.226;2024-01-10T06:53:58;-3.90;99.90
75442;DHT22;64019;48.312;14.226;2024-01-10T06:56:29;-3.80;99.90
75442;DHT22;64019;48.312;14.226;2024-01-10T06:58:56;-3.80;99.90
75442;DHT22;64019;48.312;14.226;2024-01-10T07:01:22;-3.90;99.90
75442;DHT22;64019;48.312;14.226;2024-01-10T07:03:48;-3.90;99.90
75442;DHT22;64019;48.312;14.226;2024-01-10T07:06:14;-3.90;99.90
75442;DHT22;64019;48.312;14.226;2024-01-10T07:08:43;-3.90;99.90
75442;DHT22;64019;48.312;14.226;2024-01-10T07:11:10;-3.90;99.90
75442;DHT22;64019;48.312;14.226;2024-01-10T07:13:40;-3.90;99.90
75442;DHT22;64019;48.312;14.226;2024-01-10T07:16:06;-3.80;99.90
75442;DHT22;64019;48.312;14.226;2024-01-10T07:18:32;-3.90;99.90
75442;DHT22;64019;48.312;14.226;2024-01-10T07:20:58;-3.90;99.90
75442;DHT22;64019;48.312;14.226;2024-01-10T07:23:24;-3.80;99.90
75442;DHT22;64019;48.312;14.226;2024-01-10T07:25:50;-3.80;99.90
75442;DHT22;64019;48.312;14.226;2024-01-10T07:28:16;-3.90;99.90
75442;DHT22;64019;48.312;14.226;2024-01-10T07:30:42;-3.90;99.90
75442;DHT22;64019;48.312;14.226;2024-01-10T07:33:07;-3.80;99.90
75442;DHT22;64019;48.312;14.226;2024-01-10T07:35:33;-3.80;99.90
75442;DHT22;64019;48.312;14.226;2024-01-10T07:37:59;-3.80;99.90
75442;DHT22;64019;48.312;14.226;2024-01-10T07:40:25;-3.80;99.90
75442;DHT22;64019;48.312;14.226;2024-01-10T07:42:50;-3.80;99.90
75442;DHT22;64019;48.312;14.226;2024-01-10T07:45:16;-3.80;99.90
75442;DHT22;64019;48.312;14.226;2024-01-10T07:47:42;-3.80;99.90
75442;DHT22;64019;48.312;14.226;2024-01-10T07:50:09;-3.70;99.90
75442;DHT22;64019;48.312;14.226;2024-01-10T07:52:35;-3.70;99.90
75442;DHT22;64019;48.312;14.226;2024-01-10T07:55:01;-3.60;99.90
75442;DHT22;64019;48.312;14.226;2024-01-10T07:57:31;-3.50;99.90
75442;DHT22;64019;48.312;14.226;2024-01-10T07:59:57;-3.50;99.90
75442;DHT22;64019;48.312;14.226;2024-01-10T08:02:23;-3.50;99.90
75442;DHT22;64019;48.312;14.226;2024-01-10T08:04:49;-3.50;99.90
75442;DHT22;64019;48.312;14.226;2024-01-10T08:07:14;-3.50;99.90
75442;DHT22;64019;48.312;14.226;2024-01-10T08:09:40;-3.40;99.90
75442;DHT22;64019;48.312;14.226;2024-01-10T08:12:06;-3.50;99.90
75442;DHT22;64019;48.312;14.226;2024-01-10T08:14:32;-3.40;99.90
75442;DHT22;64019;48.312;14.226;2024-01-10T08:16:58;-3.40;99.90
75442;DHT22;64019;48.312;14.226;2024-01-10T08:19:26;-3.40;99.90
75442;DHT22;64019;48.312;14.226;2024-01-10T08:21:55;-3.40;99.90
75442;DHT22;64019;48.312;14.226;2024-01-10T08:24:21;-3.30;99.90
75442;DHT22;64019;48.312;14.226;2024-01-10T08:26:47;-3.30;99.90
75442;DHT22;64019;48.312;14.226;2024-01-10T08:29:20;-3.30;99.90
75442;DHT22;64019;48.312;14.226;2024-01-10T08:31:47;-3.30;99.90
75442;DHT22;64019;48.312;14.226;2024-01-10T08:34:14;-3.30;99.90
75442;DHT22;64019;48.312;14.226;2024-01-10T08:36:40;-3.20;99.90
75442;DHT22;64019;48.312;14.226;2024-01-10T08:39:05;-3.20;99.90
75442;DHT22;64019;48.312;14.226;2024-01-10T08:41:32;-3.10;99.90
75442;DHT22;64019;48.312;14.226;2024-01-10T08:43:59;-3.00;99.90
75442;DHT22;64019;48.312;14.226;2024-01-10T08:46:25;-3.00;99.90
75442;DHT22;64019;48.312;14.226;2024-01-10T08:48:51;-3.00;99.90
75442;DHT22;64019;48.312;14.226;2024-01-10T08:51:17;-2.90;99.90
75442;DHT22;64019;48.312;14.226;2024-01-10T08:53:43;-2.80;99.90
75442;DHT22;64019;48.312;14.226;2024-01-10T08:56:10;-2.80;99.90
75442;DHT22;64019;48.312;14.226;2024-01-10T08:58:36;-2.70;99.90
75442;DHT22;64019;48.312;14.226;2024-01-10T09:01:05;-2.70;99.90
75442;DHT22;64019;48.312;14.226;2024-01-10T09:03:30;-2.70;99.90
75442;DHT22;64019;48.312;14.226;2024-01-10T09:05:56;-2.70;99.90
75442;DHT22;64019;48.312;14.226;2024-01-10T09:08:25;-2.60;99.90
75442;DHT22;64019;48.312;14.226;2024-01-10T09:10:50;-2.60;99.90
75442;DHT22;64019;48.312;14.226;2024-01-10T09:13:16;-2.60;99.90
75442;DHT22;64019;48.312;14.226;2024-01-10T09:15:42;-2.60;99.90
75442;DHT22;64019;48.312;14.226;2024-01-10T09:18:08;-2.50;99.90
75442;DHT22;64019;48.312;14.226;2024-01-10T09:20:34;-2.50;99.90
75442;DHT22;64019;48.312;14.226;2024-01-10T09:23:01;-2.50;99.90
75442;DHT22;64019;48.312;14.226;2024-01-10T09:25:27;-2.40;99.90
75442;DHT22;64019;48.312;14.226;2024-01-10T09:27:52;-2.40;99.90
75442;DHT22;64019;48.312;14.226;2024-01-10T09:30:18;-2.40;99.90
75442;DHT22;64019;48.312;14.226;2024-01-10T09:32:44;-2.40;99.90
75442;DHT22;64019;48.312;14.226;2024-01-10T09:35:11;-2.50;99.90
75442;DHT22;64019;48.312;14.226;2024-01-10T09:37:37;-2.40;99.90
75442;DHT22;64019;48.312;14.226;2024-01-10T09:40:04;-2.30;99.90
75442;DHT22;64019;48.312;14.226;2024-01-10T09:42:31;-2.30;99.90
75442;DHT22;64019;48.312;14.226;2024-01-10T09:44:58;-2.20;99.90
75442;DHT22;64019;48.312;14.226;2024-01-10T09:47:25;-2.20;99.90
75442;DHT22;64019;48.312;14.226;2024-01-10T09:49:51;-2.20;99.90
75442;DHT22;64019;48.312;14.226;2024-01-10T09:52:25;-2.10;99.90
75442;DHT22;64019;48.312;14.226;2024-01-10T09:54:56;-2.10;99.90
75442;DHT22;64019;48.312;14.226;2024-01-10T09:57:25;-2.00;99.90
75442;DHT22;64019;48.312;14.226;2024-01-10T09:59:51;-1.90;99.90
75442;DHT22;64019;48.312;14.226;2024-01-10T10:02:18;-1.90;99.90
75442;DHT22;64019;48.312;14.226;2024-01-10T10:07:26;-1.80;99.90
75442;DHT22;64019;48.312;14.226;2024-01-10T10:09:52;-1.80;99.90
75442;DHT22;64019;48.312;14.226;2024-01-10T10:12:19;-1.80;99.90
75442;DHT22;64019;48.312;14.226;2024-01-10T10:14:44;-1.80;99.90
75442;DHT22;64019;48.312;14.226;2024-01-10T10:17:17;-1.70;99.90
75442;DHT22;64019;48.312;14.226;2024-01-10T10:19:43;-1.70;99.90
75442;DHT22;64019;48.312;14.226;2024-01-10T10:22:10;-1.70;99.90
75442;DHT22;64019;48.312;14.226;2024-01-10T10:24:36;-1.70;99.90
75442;DHT22;64019;48.312;14.226;2024-01-10T10:27:08;-1.60;99.90
75442;DHT22;64019;48.312;14.226;2024-01-10T10:29:36;-1.60;99.90
75442;DHT22;64019;48.312;14.226;2024-01-10T10:32:03;-1.60;99.90
75442;DHT22;64019;48.312;14.226;2024-01-10T10:34:31;-1.50;99.90
75442;DHT22;64019;48.312;14.226;2024-01-10T10:36:58;-1.50;99.90
75442;DHT22;64019;48.312;14.226;2024-01-10T10:39:24;-1.50;99.90
75442;DHT22;64019;48.312;14.226;2024-01-10T10:41:51;-1.50;99.90
75442;DHT22;64019;48.312;14.226;2024-01-10T10:44:23;-1.40;99.90
75442;DHT22;64019;48.312;14.226;2024-01-10T10:46:54;-1.40;99.90
75442;DHT22;64019;48.312;14.226;2024-01-10T10:49:28;-1.30;99.90
75442;DHT22;64019;48.312;14.226;2024-01-10T10:51:58;-1.30;99.90
75442;DHT22;64019;48.312;14.226;2024-01-10T10:54:30;-1.40;99.90
75442;DHT22;64019;48.312;14.226;2024-01-10T10:56:59;-1.30;99.90
75442;DHT22;64019;48.312;14.226;2024-01-10T10:59:27;-1.20;99.90
75442;DHT22;64019;48.312;14.226;2024-01-10T11:01:55;-1.20;99.90
75442;DHT22;64019;48.312;14.226;2024-01-10T11:04:21;-1.10;99.90
75442;DHT22;64019;48.312;14.226;2024-01-10T11:06:47;-1.10;99.90
75442;DHT22;64019;48.312;14.226;2024-01-10T11:09:14;-1.10;99.90
75442;DHT22;64019;48.312;14.226;2024-01-10T11:12:20;-1.10;99.90
75442;DHT22;64019;48.312;14.226;2024-01-10T11:15:17;-1.10;99.90
75442;DHT22;64019;48.312;14.226;2024-01-10T11:25:51;-0.90;99.90
75442;DHT22;64019;48.312;14.226;2024-01-10T11:28:17;-0.90;99.90
75442;DHT22;64019;48.312;14.226;2024-01-10T11:30:51;-1.00;99.90
75442;DHT22;64019;48.312;14.226;2024-01-10T11:33:32;-0.90;99.90
75442;DHT22;64019;48.312;14.226;2024-01-10T11:36:19;-0.80;99.90
75442;DHT22;64019;48.312;14.226;2024-01-10T11:41:23;-0.60;99.90
75442;DHT22;64019;48.312;14.226;2024-01-10T11:46:34;-0.70;99.90
75442;DHT22;64019;48.312;14.226;2024-01-10T11:49:00;-0.60;99.90
75442;DHT22;64019;48.312;14.226;2024-01-10T11:51:26;-0.50;99.90
75442;DHT22;64019;48.312;14.226;2024-01-10T11:53:51;-0.50;99.90
75442;DHT22;64019;48.312;14.226;2024-01-10T11:56:18;-0.40;99.90
75442;DHT22;64019;48.312;14.226;2024-01-10T11:59:16;-0.30;99.90
75442;DHT22;64019;48.312;14.226;2024-01-10T12:01:42;-0.30;99.90
75442;DHT22;64019;48.312;14.226;2024-01-10T12:04:08;-0.20;99.90
75442;DHT22;64019;48.312;14.226;2024-01-10T12:06:35;-0.20;99.90
75442;DHT22;64019;48.312;14.226;2024-01-10T12:09:03;-0.20;99.90
75442;DHT22;64019;48.312;14.226;2024-01-10T12:11:34;-0.20;99.90
75442;DHT22;64019;48.312;14.226;2024-01-10T12:14:04;-0.10;99.90
75442;DHT22;64019;48.312;14.226;2024-01-10T12:16:30;-0.10;99.90
75442;DHT22;64019;48.312;14.226;2024-01-10T12:18:55;-0.10;99.90
75442;DHT22;64019;48.312;14.226;2024-01-10T12:21:21;-0.10;99.90
75442;DHT22;64019;48.312;14.226;2024-01-10T12:23:47;0.00;99.90
75442;DHT22;64019;48.312;14.226;2024-01-10T12:26:14;0.00;99.90
75442;DHT22;64019;48.312;14.226;2024-01-10T12:28:40;0.00;99.90
75442;DHT22;64019;48.312;14.226;2024-01-10T12:31:06;0.10;99.90
75442;DHT22;64019;48.312;14.226;2024-01-10T12:33:38;0.10;99.90
75442;DHT22;64019;48.312;14.226;2024-01-10T12:36:11;0.20;99.90
75442;DHT22;64019;48.312;14.226;2024-01-10T12:38:40;0.20;99.90
75442;DHT22;64019;48.312;14.226;2024-01-10T12:41:06;0.20;99.90
75442;DHT22;64019;48.312;14.226;2024-01-10T12:43:52;0.20;99.90
75442;DHT22;64019;48.312;14.226;2024-01-10T12:46:22;0.20;99.90
75442;DHT22;64019;48.312;14.226;2024-01-10T12:49:07;0.20;99.90
75442;DHT22;64019;48.312;14.226;2024-01-10T12:51:34;0.20;99.90
75442;DHT22;64019;48.312;14.226;2024-01-10T12:54:02;0.20;99.90
75442;DHT22;64019;48.312;14.226;2024-01-10T12:56:32;0.20;99.90
75442;DHT22;64019;48.312;14.226;2024-01-10T12:58:58;0.20;99.90
75442;DHT22;64019;48.312;14.226;2024-01-10T13:01:25;0.20;99.90
75442;DHT22;64019;48.312;14.226;2024-01-10T13:03:51;0.20;99.90
75442;DHT22;64019;48.312;14.226;2024-01-10T13:06:18;0.30;99.90
75442;DHT22;64019;48.312;14.226;2024-01-10T13:08:45;0.30;99.90
75442;DHT22;64019;48.312;14.226;2024-01-10T13:11:11;0.30;99.90
75442;DHT22;64019;48.312;14.226;2024-01-10T13:13:37;0.30;99.90
75442;DHT22;64019;48.312;14.226;2024-01-10T13:16:04;0.30;99.90
75442;DHT22;64019;48.312;14.226;2024-01-10T13:18:30;0.30;99.90
75442;DHT22;64019;48.312;14.226;2024-01-10T13:20:56;0.30;99.90
75442;DHT22;64019;48.312;14.226;2024-01-10T13:23:22;0.20;99.90
75442;DHT22;64019;48.312;14.226;2024-01-10T13:25:50;0.20;99.90
75442;DHT22;64019;48.312;14.226;2024-01-10T13:28:16;0.30;99.90
75442;DHT22;64019;48.312;14.226;2024-01-10T13:30:42;0.30;99.90
75442;DHT22;64019;48.312;14.226;2024-01-10T13:33:09;0.30;99.90
75442;DHT22;64019;48.312;14.226;2024-01-10T13:35:39;0.30;99.90
75442;DHT22;64019;48.312;14.226;2024-01-10T13:38:06;0.20;99.90
75442;DHT22;64019;48.312;14.226;2024-01-10T13:40:32;0.10;99.90
75442;DHT22;64019;48.312;14.226;2024-01-10T13:43:00;0.10;99.90
75442;DHT22;64019;48.312;14.226;2024-01-10T13:45:28;0.10;99.90
75442;DHT22;64019;48.312;14.226;2024-01-10T13:47:54;0.20;99.90
75442;DHT22;64019;48.312;14.226;2024-01-10T13:50:20;0.10;99.90
75442;DHT22;64019;48.312;14.226;2024-01-10T13:52:46;0.10;99.90
75442;DHT22;64019;48.312;14.226;2024-01-10T13:55:11;0.10;99.90
75442;DHT22;64019;48.312;14.226;2024-01-10T13:57:37;0.10;99.90
75442;DHT22;64019;48.312;14.226;2024-01-10T14:00:05;0.20;99.90
75442;DHT22;64019;48.312;14.226;2024-01-10T14:02:32;0.20;99.90
75442;DHT22;64019;48.312;14.226;2024-01-10T14:04:58;0.10;99.90
75442;DHT22;64019;48.312;14.226;2024-01-10T14:07:24;0.00;99.90
75442;DHT22;64019;48.312;14.226;2024-01-10T14:09:50;0.00;99.90
75442;DHT22;64019;48.312;14.226;2024-01-10T14:12:16;0.00;99.90
75442;DHT22;64019;48.312;14.226;2024-01-10T14:14:42;0.00;99.90
75442;DHT22;64019;48.312;14.226;2024-01-10T14:17:08;0.00;99.90
75442;DHT22;64019;48.312;14.226;2024-01-10T14:19:34;0.00;99.90
75442;DHT22;64019;48.312;14.226;2024-01-10T14:22:00;0.00;99.90
75442;DHT22;64019;48.312;14.226;2024-01-10T14:24:25;0.00;99.90
75442;DHT22;64019;48.312;14.226;2024-01-10T14:26:52;0.00;99.90
75442;DHT22;64019;48.312;14.226;2024-01-10T14:29:18;-0.10;99.90
75442;DHT22;64019;48.312;14.226;2024-01-10T14:31:44;-0.20;99.90
75442;DHT22;64019;48.312;14.226;2024-01-10T14:34:10;-0.20;99.90
75442;DHT22;64019;48.312;14.226;2024-01-10T14:36:38;-0.20;99.90
75442;DHT22;64019;48.312;14.226;2024-01-10T14:39:04;-0.20;99.90
75442;DHT22;64019;48.312;14.226;2024-01-10T14:41:33;-0.20;99.90
75442;DHT22;64019;48.312;14.226;2024-01-10T14:44:00;-0.20;99.90
75442;DHT22;64019;48.312;14.226;2024-01-10T14:46:26;-0.20;99.90
75442;DHT22;64019;48.312;14.226;2024-01-10T14:48:53;-0.30;99.90
75442;DHT22;64019;48.312;14.226;2024-01-10T14:51:19;-0.40;99.90
75442;DHT22;64019;48.312;14.226;2024-01-10T14:53:45;-0.30;99.90
75442;DHT22;64019;48.312;14.226;2024-01-10T14:56:11;-0.30;99.90
75442;DHT22;64019;48.312;14.226;2024-01-10T14:58:37;-0.30;99.90
75442;DHT22;64019;48.312;14.226;2024-01-10T15:01:02;-0.40;99.90
75442;DHT22;64019;48.312;14.226;2024-01-10T15:03:28;-0.40;99.90
75442;DHT22;64019;48.312;14.226;2024-01-10T15:05:54;-0.40;99.90
75442;DHT22;64019;48.312;14.226;2024-01-10T15:08:20;-0.40;99.90
75442;DHT22;64019;48.312;14.226;2024-01-10T15:10:45;-0.40;99.90
75442;DHT22;64019;48.312;14.226;2024-01-10T15:13:12;-0.40;99.90
75442;DHT22;64019;48.312;14.226;2024-01-10T15:15:38;-0.40;99.90
75442;DHT22;64019;48.312;14.226;2024-01-10T15:18:05;-0.50;99.90
75442;DHT22;64019;48.312;14.226;2024-01-10T15:20:31;-0.50;99.90
75442;DHT22;64019;48.312;14.226;2024-01-10T15:22:57;-0.60;99.90
75442;DHT22;64019;48.312;14.226;2024-01-10T15:25:24;-0.60;99.90
75442;DHT22;64019;48.312;14.226;2024-01-10T15:27:51;-0.60;99.90
75442;DHT22;64019;48.312;14.226;2024-01-10T15:30:17;-0.60;99.90
75442;DHT22;64019;48.312;14.226;2024-01-10T15:32:43;-0.60;99.90